createdAt,value
2017-08-17T00:01:47.776Z,49.20
2017-08-17T00:04:15.555Z,49.00
2017-08-17T00:06:43.295Z,49.10
2017-08-17T00:09:11.088Z,49.30
2017-08-17T00:11:38.872Z,49.50
2017-08-17T00:14:06.672Z,49.70
2017-08-17T00:16:34.449Z,50.10
2017-08-17T00:19:02.184Z,50.30
2017-08-17T00:21:29.900Z,50.30
2017-08-17T00:23:57.687Z,50.10
2017-08-17T00:26:25.406Z,50.50
2017-08-17T00:28:53.139Z,50.80
2017-08-17T00:31:20.909Z,50.40
2017-08-17T00:33:48.737Z,50.60
2017-08-17T00:36:16.526Z,50.30
2017-08-17T00:38:44.247Z,50.50
2017-08-17T00:41:11.993Z,51.30
2017-08-17T00:43:39.716Z,50.90
2017-08-17T00:46:07.447Z,50.80
2017-08-17T00:48:36.002Z,52.00
2017-08-17T00:51:03.724Z,52.00
2017-08-17T00:53:31.496Z,52.40
2017-08-17T00:55:59.221Z,51.80
2017-08-17T00:58:26.927Z,51.50
2017-08-17T01:00:54.681Z,51.10
2017-08-17T01:03:22.471Z,51.10
2017-08-17T01:05:50.245Z,51.00
2017-08-17T01:08:17.981Z,51.00
2017-08-17T01:10:45.754Z,51.80
2017-08-17T01:13:13.521Z,52.30
2017-08-17T01:15:41.299Z,52.20
2017-08-17T01:18:09.104Z,51.90
2017-08-17T01:20:36.875Z,51.80
2017-08-17T01:23:04.602Z,52.30
2017-08-17T01:25:32.328Z,51.90
2017-08-17T01:28:00.869Z,50.30
2017-08-17T01:30:28.664Z,50.10
2017-08-17T01:32:56.404Z,50.50
2017-08-17T01:35:24.171Z,50.40
2017-08-17T01:37:51.935Z,49.40
2017-08-17T01:40:19.669Z,49.30
2017-08-17T01:42:47.455Z,48.90
2017-08-17T01:45:15.181Z,48.90
2017-08-17T01:47:42.910Z,48.70
2017-08-17T01:50:10.643Z,48.60
2017-08-17T01:52:38.357Z,48.50
2017-08-17T01:55:06.123Z,48.20
2017-08-17T01:57:33.933Z,47.90
2017-08-17T02:00:01.728Z,48.60
2017-08-17T02:02:29.450Z,48.80
2017-08-17T02:04:58.025Z,49.20
2017-08-17T02:07:25.792Z,49.10
2017-08-17T02:09:53.530Z,49.10
2017-08-17T02:12:21.268Z,49.20
2017-08-17T02:14:49.059Z,49.50
2017-08-17T02:17:16.836Z,50.10
2017-08-17T02:19:44.626Z,51.00
2017-08-17T02:22:12.348Z,50.90
2017-08-17T02:24:40.154Z,51.10
2017-08-17T02:27:07.881Z,51.00
2017-08-17T02:29:35.594Z,51.00
2017-08-17T02:32:03.339Z,51.10
2017-08-17T02:34:31.057Z,51.40
2017-08-17T02:36:58.773Z,52.30
2017-08-17T02:39:26.583Z,52.40
2017-08-17T02:41:54.318Z,52.30
2017-08-17T02:44:22.096Z,52.50
2017-08-17T02:46:50.677Z,53.50
2017-08-17T02:49:18.457Z,52.90
2017-08-17T02:51:46.225Z,53.60
2017-08-17T02:54:13.996Z,53.50
2017-08-17T02:56:41.786Z,53.30
2017-08-17T02:59:09.509Z,53.30
2017-08-17T03:01:37.282Z,53.40
2017-08-17T03:04:04.998Z,53.30
2017-08-17T03:06:32.767Z,53.50
2017-08-17T03:09:00.560Z,53.50
2017-08-17T03:11:28.320Z,53.80
2017-08-17T03:13:56.102Z,53.70
2017-08-17T03:16:23.888Z,53.50
2017-08-17T03:18:51.627Z,53.10
2017-08-17T03:21:19.360Z,53.50
2017-08-17T03:23:47.142Z,53.00
2017-08-17T03:26:14.865Z,53.00
2017-08-17T03:28:42.595Z,53.40
2017-08-17T03:31:10.349Z,53.50
2017-08-17T03:33:38.060Z,53.40
2017-08-17T03:36:06.596Z,52.80
2017-08-17T03:38:34.379Z,52.80
2017-08-17T03:41:02.157Z,53.20
2017-08-17T03:43:29.919Z,53.30
2017-08-17T03:45:57.716Z,52.70
2017-08-17T03:48:25.501Z,52.30
2017-08-17T03:50:53.278Z,51.60
2017-08-17T03:53:21.013Z,51.80
2017-08-17T03:55:48.723Z,51.80
2017-08-17T03:58:16.491Z,51.90
2017-08-17T04:00:44.219Z,52.00
2017-08-17T04:03:11.946Z,51.90
2017-08-17T04:05:39.731Z,52.00
2017-08-17T04:08:07.444Z,51.90
2017-08-17T04:10:35.207Z,52.20
2017-08-17T04:13:02.995Z,51.80
2017-08-17T04:15:30.790Z,52.30
2017-08-17T04:17:58.505Z,52.40
2017-08-17T04:20:26.236Z,52.60
2017-08-17T04:22:54.748Z,52.30
2017-08-17T04:25:22.480Z,52.30
2017-08-17T04:27:50.259Z,52.30
2017-08-17T04:30:17.992Z,52.00
2017-08-17T04:32:45.712Z,52.00
2017-08-17T04:35:13.479Z,52.40
2017-08-17T04:37:41.268Z,51.90
2017-08-17T04:40:09.049Z,52.00
2017-08-17T04:42:36.780Z,52.10
2017-08-17T04:45:04.492Z,52.60
2017-08-17T04:47:32.267Z,52.80
2017-08-17T04:50:00.061Z,52.80
2017-08-17T04:52:27.861Z,52.90
2017-08-17T04:54:55.640Z,52.60
2017-08-17T04:57:40.869Z,52.60
2017-08-17T05:00:09.408Z,52.70
2017-08-17T05:02:37.248Z,52.70
2017-08-17T05:05:04.965Z,52.90
2017-08-17T05:07:32.676Z,53.00
2017-08-17T05:10:00.421Z,53.00
2017-08-17T05:12:28.204Z,52.90
2017-08-17T05:14:55.921Z,52.90
2017-08-17T05:17:23.662Z,52.80
2017-08-17T05:19:51.692Z,52.80
2017-08-17T05:22:19.621Z,52.90
2017-08-17T05:24:47.426Z,53.10
2017-08-17T05:27:15.232Z,53.00
2017-08-17T05:29:42.950Z,52.80
2017-08-17T05:32:10.732Z,52.80
2017-08-17T05:34:38.501Z,52.60
2017-08-17T05:37:06.267Z,52.30
2017-08-17T05:39:34.033Z,52.60
2017-08-17T05:42:01.815Z,52.50
2017-08-17T05:44:29.551Z,52.40
2017-08-17T05:46:57.355Z,52.40
2017-08-17T05:49:25.096Z,52.20
2017-08-17T05:51:52.896Z,52.60
2017-08-17T05:54:20.689Z,52.50
2017-08-17T05:56:48.467Z,52.00
2017-08-17T05:59:16.193Z,51.70
2017-08-17T06:01:44.012Z,51.80
2017-08-17T06:04:11.863Z,51.70
2017-08-17T06:06:39.646Z,51.80
2017-08-17T06:09:09.166Z,51.60
2017-08-17T06:11:38.229Z,51.70
2017-08-17T06:14:05.957Z,51.60
2017-08-17T06:16:33.739Z,51.20
2017-08-17T06:19:01.508Z,51.10
2017-08-17T06:21:29.319Z,50.80
2017-08-17T06:23:57.106Z,50.60
2017-08-17T06:26:25.152Z,50.60
2017-08-17T06:28:52.966Z,50.80
2017-08-17T06:31:20.690Z,50.60
2017-08-17T06:33:48.502Z,50.90
2017-08-17T06:36:16.236Z,50.90
2017-08-17T06:38:44.017Z,51.00
2017-08-17T06:41:11.816Z,50.70
2017-08-17T06:43:39.601Z,50.90
2017-08-17T06:46:07.387Z,51.10
2017-08-17T06:48:35.113Z,51.20
2017-08-17T06:51:02.848Z,51.50
2017-08-17T06:53:30.576Z,51.40
2017-08-17T06:55:58.305Z,51.30
2017-08-17T06:58:26.126Z,51.60
2017-08-17T07:00:53.915Z,51.50
2017-08-17T07:03:21.663Z,51.50
2017-08-17T07:05:49.451Z,51.80
2017-08-17T07:08:17.224Z,51.30
2017-08-17T07:10:45.840Z,51.20
2017-08-17T07:13:13.661Z,51.30
2017-08-17T07:15:41.440Z,51.60
2017-08-17T07:18:09.942Z,51.80
2017-08-17T07:20:38.084Z,51.70
2017-08-17T07:23:06.046Z,51.90
2017-08-17T07:25:33.795Z,52.20
2017-08-17T07:28:01.623Z,51.80
2017-08-17T07:30:29.417Z,51.60
2017-08-17T07:32:57.191Z,52.00
2017-08-17T07:35:24.911Z,51.80
2017-08-17T07:37:52.754Z,51.80
2017-08-17T07:40:20.702Z,51.20
2017-08-17T07:42:49.382Z,50.40
2017-08-17T07:45:17.168Z,51.10
2017-08-17T07:47:45.003Z,51.80
2017-08-17T07:50:12.918Z,50.90
2017-08-17T07:52:40.727Z,50.80
2017-08-17T07:55:08.445Z,51.20
2017-08-17T07:57:36.232Z,51.50
2017-08-17T08:00:04.328Z,51.30
2017-08-17T08:02:32.205Z,51.30
2017-08-17T08:04:59.989Z,51.40
2017-08-17T08:07:27.764Z,51.40
2017-08-17T08:09:55.709Z,51.10
2017-08-17T08:12:23.457Z,51.10
2017-08-17T08:14:51.222Z,51.00
2017-08-17T08:17:18.949Z,51.00
2017-08-17T08:19:46.676Z,51.70
2017-08-17T08:22:14.607Z,51.90
2017-08-17T08:24:42.474Z,51.90
2017-08-17T08:27:10.249Z,51.70
2017-08-17T08:29:39.908Z,52.10
2017-08-17T08:32:07.747Z,52.00
2017-08-17T08:34:36.362Z,51.70
2017-08-17T08:37:05.256Z,51.80
2017-08-17T08:39:33.726Z,51.90
2017-08-17T08:42:01.806Z,51.70
2017-08-17T08:44:30.963Z,52.00
2017-08-17T08:46:58.793Z,51.70
2017-08-17T08:49:27.864Z,52.30
2017-08-17T08:51:55.696Z,52.10
2017-08-17T08:54:24.028Z,52.20
2017-08-17T08:56:51.963Z,52.20
2017-08-17T08:59:19.675Z,52.00
2017-08-17T09:01:48.476Z,52.60
2017-08-17T09:04:17.373Z,51.60
2017-08-17T09:06:46.855Z,52.40
2017-08-17T09:09:16.109Z,52.20
2017-08-17T09:11:45.502Z,51.80
2017-08-17T09:14:15.183Z,51.90
2017-08-17T09:16:44.031Z,52.20
2017-08-17T09:19:14.479Z,51.90
2017-08-17T09:21:43.325Z,51.90
2017-08-17T09:24:11.578Z,52.00
2017-08-17T09:26:39.316Z,51.80
2017-08-17T09:29:09.446Z,51.40
2017-08-17T09:31:38.125Z,51.50
2017-08-17T09:34:05.879Z,51.40
2017-08-17T09:36:33.612Z,50.20
2017-08-17T09:39:01.402Z,50.50
2017-08-17T09:41:29.127Z,51.00
2017-08-17T09:43:56.849Z,51.20
2017-08-17T09:46:25.458Z,50.90
2017-08-17T09:48:53.232Z,50.80
2017-08-17T09:51:20.980Z,51.10
2017-08-17T09:53:48.782Z,50.00
2017-08-17T09:56:16.561Z,50.60
2017-08-17T09:58:44.302Z,50.50
2017-08-17T10:01:12.046Z,49.80
2017-08-17T10:03:39.779Z,49.80
2017-08-17T10:06:07.518Z,50.30
2017-08-17T10:08:35.326Z,49.30
2017-08-17T10:11:03.034Z,49.60
2017-08-17T10:13:30.754Z,50.30
2017-08-17T10:15:58.572Z,50.10
2017-08-17T10:18:26.307Z,50.30
2017-08-17T10:20:54.099Z,49.40
2017-08-17T10:23:21.914Z,49.20
2017-08-17T10:25:49.620Z,49.90
2017-08-17T10:28:17.333Z,48.80
2017-08-17T10:30:45.095Z,50.10
2017-08-17T10:33:12.856Z,49.70
2017-08-17T10:35:40.624Z,47.90
2017-08-17T10:38:08.356Z,47.30
2017-08-17T10:40:36.081Z,47.30
2017-08-17T10:43:03.962Z,48.60
2017-08-17T10:45:31.772Z,49.00
2017-08-17T10:47:59.600Z,48.70
2017-08-17T10:50:28.143Z,47.10
2017-08-17T10:52:55.936Z,47.50
2017-08-17T10:55:23.708Z,49.20
2017-08-17T10:57:51.659Z,49.20
2017-08-17T11:00:19.449Z,49.10
2017-08-17T11:02:47.173Z,47.80
2017-08-17T11:05:14.895Z,48.30
2017-08-17T11:07:43.391Z,47.60
2017-08-17T11:10:11.135Z,47.60
2017-08-17T11:12:39.049Z,46.70
2017-08-17T11:15:09.623Z,46.50
2017-08-17T11:17:39.452Z,46.60
2017-08-17T11:20:08.338Z,47.30
2017-08-17T11:22:37.393Z,46.50
2017-08-17T11:25:06.811Z,47.70
2017-08-17T11:27:41.458Z,44.90
2017-08-17T11:30:09.839Z,45.40
2017-08-17T11:32:37.723Z,45.60
2017-08-17T11:35:06.945Z,46.00
2017-08-17T11:37:36.119Z,46.10
2017-08-17T11:40:05.089Z,44.00
2017-08-17T11:42:33.182Z,44.80
2017-08-17T11:45:01.862Z,45.30
2017-08-17T11:47:30.839Z,45.50
2017-08-17T11:50:00.163Z,45.60
2017-08-17T11:52:28.488Z,45.50
2017-08-17T11:54:56.360Z,45.40
2017-08-17T11:57:25.439Z,45.30
2017-08-17T11:59:54.616Z,45.50
2017-08-17T12:02:23.234Z,45.40
2017-08-17T12:04:52.240Z,45.50
2017-08-17T12:07:20.422Z,45.40
2017-08-17T12:09:49.580Z,45.30
2017-08-17T12:12:18.165Z,45.10
2017-08-17T12:14:46.493Z,45.30
2017-08-17T12:17:15.382Z,44.50
2017-08-17T12:19:43.141Z,45.70
2017-08-17T12:22:10.882Z,45.40
2017-08-17T12:24:39.734Z,45.00
2017-08-17T12:27:08.437Z,44.40
2017-08-17T12:29:36.708Z,44.80
2017-08-17T12:32:05.106Z,44.20
2017-08-17T12:34:32.972Z,44.10
2017-08-17T12:37:01.482Z,44.10
2017-08-17T12:39:29.317Z,43.80
2017-08-17T12:41:58.190Z,43.10
2017-08-17T12:44:25.912Z,43.50
2017-08-17T12:46:53.795Z,43.50
2017-08-17T12:49:21.639Z,43.60
2017-08-17T12:51:50.524Z,43.20
2017-08-17T12:54:19.060Z,42.90
2017-08-17T12:56:47.073Z,43.10
2017-08-17T12:59:14.916Z,43.40
2017-08-17T13:01:42.693Z,43.40
2017-08-17T13:04:10.495Z,43.40
2017-08-17T13:06:38.306Z,43.70
2017-08-17T13:09:06.113Z,43.60
2017-08-17T13:11:33.903Z,42.30
2017-08-17T13:14:01.644Z,41.70
2017-08-17T13:16:29.363Z,42.50
2017-08-17T13:18:57.136Z,42.60
2017-08-17T13:21:24.957Z,43.60
2017-08-17T13:23:52.753Z,42.00
2017-08-17T13:26:21.243Z,45.00
2017-08-17T13:28:48.961Z,45.00
2017-08-17T13:31:16.728Z,42.40
2017-08-17T13:33:45.022Z,42.30
2017-08-17T13:36:12.801Z,43.30
2017-08-17T13:38:41.312Z,41.70
2017-08-17T13:41:09.039Z,41.20
2017-08-17T13:43:36.825Z,42.50
2017-08-17T13:46:04.632Z,42.50
2017-08-17T13:48:32.410Z,42.10
2017-08-17T13:51:00.184Z,42.10
2017-08-17T13:53:27.988Z,42.10
2017-08-17T13:55:55.709Z,41.80
2017-08-17T13:58:23.473Z,41.80
2017-08-17T14:00:51.253Z,41.90
2017-08-17T14:03:19.024Z,41.70
2017-08-17T14:05:46.754Z,40.90
2017-08-17T14:08:14.547Z,41.00
2017-08-17T14:10:42.315Z,41.50
2017-08-17T14:13:10.084Z,42.50
2017-08-17T14:15:37.896Z,42.60
2017-08-17T14:18:05.687Z,42.50
2017-08-17T14:20:33.420Z,43.50
2017-08-17T14:23:01.145Z,43.10
2017-08-17T14:25:28.875Z,42.00
2017-08-17T14:27:56.602Z,42.40
2017-08-17T14:30:24.697Z,42.00
2017-08-17T14:32:52.469Z,42.00
2017-08-17T14:35:20.184Z,42.20
2017-08-17T14:37:48.062Z,39.20
2017-08-17T14:40:15.846Z,38.70
2017-08-17T14:42:43.658Z,40.20
2017-08-17T14:45:13.941Z,41.20
2017-08-17T14:47:41.693Z,39.70
2017-08-17T14:50:11.873Z,41.10
2017-08-17T14:52:39.801Z,41.50
2017-08-17T14:55:07.601Z,42.00
2017-08-17T14:57:35.319Z,42.20
2017-08-17T15:00:03.055Z,42.40
2017-08-17T15:02:30.840Z,42.50
2017-08-17T15:04:58.577Z,42.50
2017-08-17T15:07:28.246Z,42.40
2017-08-17T15:09:58.553Z,42.60
2017-08-17T15:12:29.038Z,42.50
2017-08-17T15:14:58.070Z,42.30
2017-08-17T15:17:27.576Z,41.20
2017-08-17T15:19:56.994Z,41.70
2017-08-17T15:22:24.798Z,42.20
2017-08-17T15:24:52.525Z,42.60
2017-08-17T15:27:20.260Z,42.50
2017-08-17T15:29:48.020Z,43.00
2017-08-17T15:32:15.875Z,43.00
2017-08-17T15:34:43.711Z,42.70
2017-08-17T15:37:11.445Z,43.20
2017-08-17T15:39:39.229Z,42.10
2017-08-17T15:42:07.000Z,41.90
2017-08-17T15:44:34.784Z,42.30
2017-08-17T15:47:02.520Z,40.60
2017-08-17T15:49:30.313Z,40.10
2017-08-17T15:51:58.057Z,40.70
2017-08-17T15:54:25.827Z,43.30
2017-08-17T15:56:53.628Z,43.80
2017-08-17T15:59:21.354Z,43.80
2017-08-17T16:01:49.068Z,42.40
2017-08-17T16:04:16.775Z,43.80
2017-08-17T16:06:44.514Z,44.60
2017-08-17T16:09:12.301Z,44.70
2017-08-17T16:11:40.063Z,44.60
2017-08-17T16:14:07.881Z,44.30
2017-08-17T16:16:35.652Z,44.40
2017-08-17T16:19:03.420Z,44.80
2017-08-17T16:21:31.160Z,45.30
2017-08-17T16:23:58.873Z,45.00
2017-08-17T16:26:26.589Z,44.90
2017-08-17T16:28:54.321Z,44.10
2017-08-17T16:31:22.834Z,44.70
2017-08-17T16:33:50.552Z,44.70
2017-08-17T16:36:18.341Z,44.40
2017-08-17T16:38:46.154Z,44.60
2017-08-17T16:41:13.892Z,44.70
2017-08-17T16:43:41.701Z,44.70
2017-08-17T16:46:09.438Z,44.70
2017-08-17T16:48:37.162Z,44.60
2017-08-17T16:51:04.891Z,44.50
2017-08-17T16:53:32.620Z,44.20
2017-08-17T16:56:00.396Z,44.10
2017-08-17T16:58:28.194Z,44.50
2017-08-17T17:00:56.173Z,44.10
2017-08-17T17:03:23.969Z,44.10
2017-08-17T17:05:52.464Z,44.20
2017-08-17T17:08:20.252Z,44.20
2017-08-17T17:10:47.991Z,44.10
2017-08-17T17:13:15.727Z,44.40
2017-08-17T17:15:43.477Z,44.50
2017-08-17T17:18:11.200Z,44.50
2017-08-17T17:20:38.922Z,44.60
2017-08-17T17:23:06.659Z,44.80
2017-08-17T17:25:34.385Z,44.70
2017-08-17T17:28:02.205Z,44.90
2017-08-17T17:30:30.020Z,44.90
2017-08-17T17:32:58.512Z,45.30
2017-08-17T17:35:26.499Z,45.00
2017-08-17T17:37:54.212Z,45.10
2017-08-17T17:40:21.950Z,45.50
2017-08-17T17:42:49.696Z,45.80
2017-08-17T17:45:17.486Z,45.50
2017-08-17T17:47:45.777Z,45.80
2017-08-17T17:50:13.579Z,45.80
2017-08-17T17:52:41.307Z,45.90
2017-08-17T17:55:09.032Z,45.70
2017-08-17T17:57:36.849Z,45.70
2017-08-17T18:00:04.654Z,45.70
2017-08-17T18:02:32.371Z,45.70
2017-08-17T18:05:00.148Z,45.40
2017-08-17T18:07:27.863Z,45.70
2017-08-17T18:09:55.640Z,45.40
2017-08-17T18:12:23.400Z,45.30
2017-08-17T18:14:51.195Z,45.10
2017-08-17T18:17:18.908Z,45.20
2017-08-17T18:19:46.816Z,45.20
2017-08-17T18:22:14.591Z,45.10
2017-08-17T18:24:42.367Z,44.70
2017-08-17T18:27:10.105Z,44.80
2017-08-17T18:29:37.838Z,44.90
2017-08-17T18:32:05.639Z,43.90
2017-08-17T18:34:33.439Z,44.50
2017-08-17T18:37:01.173Z,43.20
2017-08-17T18:39:28.888Z,44.70
2017-08-17T18:41:56.713Z,44.50
2017-08-17T18:44:24.454Z,43.40
2017-08-17T18:46:52.240Z,43.50
2017-08-17T18:49:20.052Z,43.20
2017-08-17T18:51:47.825Z,42.60
2017-08-17T18:54:15.587Z,43.60
2017-08-17T18:56:43.342Z,43.80
2017-08-17T18:59:11.151Z,43.30
2017-08-17T19:01:38.947Z,43.00
2017-08-17T19:04:06.771Z,43.40
2017-08-17T19:06:34.546Z,43.10
2017-08-17T19:09:02.311Z,43.70
2017-08-17T19:11:30.109Z,43.70
2017-08-17T19:13:57.906Z,43.70
2017-08-17T19:16:25.620Z,43.90
2017-08-17T19:18:53.402Z,43.60
2017-08-17T19:21:21.252Z,43.80
2017-08-17T19:23:48.976Z,44.00
2017-08-17T19:26:16.689Z,42.90
2017-08-17T19:28:44.459Z,42.80
2017-08-17T19:31:12.229Z,43.40
2017-08-17T19:33:39.947Z,43.50
2017-08-17T19:36:07.756Z,43.60
2017-08-17T19:38:35.541Z,43.60
2017-08-17T19:41:03.298Z,43.50
2017-08-17T19:43:31.071Z,43.50
2017-08-17T19:45:58.856Z,43.50
2017-08-17T19:48:26.644Z,43.40
2017-08-17T19:50:54.430Z,43.10
2017-08-17T19:53:22.208Z,42.80
2017-08-17T19:55:49.976Z,42.00
2017-08-17T19:58:17.762Z,42.00
2017-08-17T20:00:45.476Z,40.60
2017-08-17T20:03:13.242Z,40.90
2017-08-17T20:05:41.003Z,43.00
2017-08-17T20:08:08.803Z,43.00
2017-08-17T20:10:36.622Z,41.40
2017-08-17T20:13:04.410Z,40.30
2017-08-17T20:15:32.127Z,41.00
2017-08-17T20:18:00.716Z,41.70
2017-08-17T20:20:28.493Z,42.80
2017-08-17T20:22:56.229Z,41.80
2017-08-17T20:25:24.015Z,42.60
2017-08-17T20:27:51.863Z,41.60
2017-08-17T20:30:19.661Z,42.90
2017-08-17T20:32:47.454Z,41.40
2017-08-17T20:35:15.751Z,40.70
2017-08-17T20:37:43.586Z,40.40
2017-08-17T20:40:11.313Z,40.50
2017-08-17T20:42:39.053Z,41.10
2017-08-17T20:45:06.870Z,40.50
2017-08-17T20:47:34.596Z,40.60
2017-08-17T20:50:02.363Z,40.70
2017-08-17T20:52:30.085Z,40.70
2017-08-17T20:54:57.803Z,41.10
2017-08-17T20:57:25.627Z,40.70
2017-08-17T20:59:53.392Z,40.90
2017-08-17T21:02:21.182Z,40.90
2017-08-17T21:04:48.959Z,41.60
2017-08-17T21:07:16.744Z,40.90
2017-08-17T21:09:44.542Z,41.10
2017-08-17T21:12:12.326Z,42.90
2017-08-17T21:14:40.071Z,42.00
2017-08-17T21:17:07.869Z,41.10
2017-08-17T21:19:35.645Z,41.20
2017-08-17T21:22:03.452Z,42.70
2017-08-17T21:24:31.231Z,42.90
2017-08-17T21:26:58.974Z,42.90
2017-08-17T21:29:26.717Z,42.90
2017-08-17T21:31:54.493Z,42.90
2017-08-17T21:34:22.227Z,41.30
2017-08-17T21:36:50.036Z,41.50
2017-08-17T21:39:17.773Z,41.40
2017-08-17T21:41:45.500Z,41.90
2017-08-17T21:44:13.774Z,42.00
2017-08-17T21:46:41.719Z,42.20
2017-08-17T21:49:09.466Z,42.60
2017-08-17T21:51:37.206Z,42.80
2017-08-17T21:54:04.981Z,43.10
2017-08-17T21:56:32.729Z,43.30
2017-08-17T21:59:00.468Z,43.30
2017-08-17T22:01:28.192Z,43.50
2017-08-17T22:03:55.992Z,43.40
2017-08-17T22:06:23.770Z,43.40
2017-08-17T22:08:51.560Z,43.50
2017-08-17T22:11:19.282Z,43.60
2017-08-17T22:13:47.029Z,43.90
2017-08-17T22:18:48.783Z,44.10
2017-08-17T22:21:16.520Z,44.10
2017-08-17T22:23:44.324Z,44.20
2017-08-17T22:26:12.074Z,44.20
2017-08-17T22:28:39.796Z,44.20
2017-08-17T22:31:07.569Z,44.10
2017-08-17T22:33:35.352Z,44.10
2017-08-17T22:36:03.120Z,44.10
2017-08-17T22:38:30.894Z,44.10
2017-08-17T22:41:00.028Z,44.10
2017-08-17T22:43:30.095Z,43.90
2017-08-17T22:45:57.817Z,43.90
2017-08-17T22:48:25.619Z,44.30
2017-08-17T22:50:53.378Z,44.50
2017-08-17T22:53:21.100Z,44.70
2017-08-17T22:55:48.897Z,44.80
2017-08-17T22:58:16.672Z,44.60
2017-08-17T23:00:44.433Z,44.80
2017-08-17T23:03:12.156Z,45.00
2017-08-17T23:05:39.881Z,44.90
2017-08-17T23:08:07.605Z,45.20
2017-08-17T23:10:36.163Z,45.90
2017-08-17T23:13:03.938Z,45.30
2017-08-17T23:15:31.715Z,45.40
2017-08-17T23:17:59.430Z,45.20
2017-08-17T23:20:27.151Z,45.30
2017-08-17T23:22:54.884Z,45.20
2017-08-17T23:25:22.604Z,45.40
2017-08-17T23:27:50.341Z,45.60
2017-08-17T23:30:18.110Z,45.70
2017-08-17T23:32:45.928Z,45.80
2017-08-17T23:35:13.723Z,46.10
2017-08-17T23:37:41.522Z,46.10
2017-08-17T23:40:09.310Z,46.80
2017-08-17T23:42:37.129Z,46.10
2017-08-17T23:45:04.905Z,46.70
2017-08-17T23:47:32.621Z,45.90
2017-08-17T23:50:00.429Z,46.10
2017-08-17T23:52:28.247Z,46.20
2017-08-17T23:54:55.965Z,46.20
2017-08-17T23:57:23.698Z,46.30
2017-08-17T23:59:51.416Z,46.20
